Time;durP1;ratioP1;P1;durP2;ratioP2;P2;SDS_P1;SDS_P2;PMS_P1;PMS_P2;Temp;Humidity;BMP_temperature;BMP_pressure;BME280_temperature;BME280_humidity;BME280_pressure;Samples;Min_cycle;Max_cycle;Signal;HPM_P1;HPM_P2
2023/03/31 00:02:24;;;;;;;29.70;3.75;;;9.60;99.90;;;;;;4977880;28;20034;-93
2023/03/31 00:04:53;;;;;;;21.13;3.22;;;9.60;99.90;;;;;;4978924;28;20023;-93
2023/03/31 00:07:22;;;;;;;13.45;2.60;;;9.70;99.90;;;;;;4959148;28;20031;-93
2023/03/31 00:09:48;;;;;;;19.88;3.30;;;9.70;99.90;;;;;;4975919;28;20053;-94
2023/03/31 00:12:15;;;;;;;20.80;2.70;;;9.70;99.90;;;;;;4966627;28;20118;-94
2023/03/31 00:14:42;;;;;;;16.83;3.53;;;9.70;99.90;;;;;;4975493;28;20031;-93
2023/03/31 00:17:09;;;;;;;18.92;2.28;;;9.60;99.90;;;;;;4974987;28;20119;-94
2023/03/31 00:19:35;;;;;;;18.25;2.65;;;9.60;99.90;;;;;;4974801;28;20022;-94
2023/03/31 00:22:01;;;;;;;12.98;1.95;;;9.60;99.90;;;;;;4974843;28;20090;-94
2023/03/31 00:24:31;;;;;;;7.43;1.77;;;9.60;99.90;;;;;;4975842;28;20026;-95
2023/03/31 00:27:08;;;;;;;14.25;2.08;;;9.50;99.90;;;;;;4974735;28;20078;-93
2023/03/31 00:29:34;;;;;;;12.68;1.90;;;9.60;99.90;;;;;;4975097;28;20054;-92
2023/03/31 00:32:00;;;;;;;7.07;1.45;;;9.50;99.90;;;;;;4974600;28;20395;-94
2023/03/31 00:34:27;;;;;;;12.23;2.28;;;9.50;99.90;;;;;;4957862;28;20113;-94
2023/03/31 00:36:55;;;;;;;14.52;1.60;;;9.40;99.90;;;;;;4959625;28;20062;-94
2023/03/31 00:39:23;;;;;;;8.77;1.70;;;9.40;99.90;;;;;;4958150;28;20023;-93
2023/03/31 00:41:51;;;;;;;15.15;1.88;;;9.40;99.90;;;;;;4957432;28;20031;-94
2023/03/31 00:44:23;;;;;;;12.40;2.35;;;9.40;99.90;;;;;;4956054;29;20059;-93
2023/03/31 00:46:54;;;;;;;13.35;2.20;;;9.30;99.90;;;;;;4956991;29;20035;-93
2023/03/31 00:49:31;;;;;;;10.77;1.88;;;9.30;99.90;;;;;;4957946;29;20032;-94
2023/03/31 00:52:04;;;;;;;4.60;1.55;;;9.30;99.90;;;;;;4958201;29;20098;-94
2023/03/31 00:54:32;;;;;;;9.13;1.70;;;9.30;99.90;;;;;;4956773;29;20031;-94
2023/03/31 00:57:02;;;;;;;12.73;1.90;;;9.30;99.90;;;;;;4941449;29;20051;-94
2023/03/31 00:59:30;;;;;;;9.00;2.10;;;9.30;99.90;;;;;;4956782;29;20118;-94
2023/03/31 01:02:01;;;;;;;12.43;1.80;;;9.30;99.90;;;;;;4956141;29;20023;-94
2023/03/31 01:04:29;;;;;;;;;;;9.30;99.90;;;;;;4956258;29;20035;-93
2023/03/31 01:07:08;;;;;;;10.38;1.70;;;9.30;99.90;;;;;;4955849;29;19954;-93
2023/03/31 01:09:34;;;;;;;7.53;1.50;;;9.30;99.90;;;;;;4955615;28;20052;-93
2023/03/31 01:12:03;;;;;;;8.55;1.60;;;9.30;99.90;;;;;;4955995;29;20029;-92
2023/03/31 01:14:30;;;;;;;10.00;1.58;;;9.30;99.90;;;;;;4961612;29;20065;-92
2023/03/31 01:16:56;;;;;;;11.27;1.38;;;9.30;99.90;;;;;;4960274;29;20047;-93
2023/03/31 01:19:50;;;;;;;6.78;1.60;;;9.30;99.90;;;;;;4961354;28;20026;-93
2023/03/31 01:22:38;;;;;;;6.13;1.60;;;9.30;99.90;;;;;;4946462;28;20039;-92
2023/03/31 01:25:37;;;;;;;6.28;1.27;;;9.30;99.90;;;;;;4981508;28;20030;-91
2023/03/31 01:28:18;;;;;;;8.27;1.40;;;9.30;99.90;;;;;;4984545;28;20027;-93
2023/03/31 01:31:02;;;;;;;9.50;1.60;;;9.20;99.90;;;;;;4980950;28;20035;-93
2023/03/31 01:33:28;;;;;;;13.18;1.45;;;9.30;99.90;;;;;;4981617;28;20015;-93
2023/03/31 01:36:38;;;;;;;7.43;1.95;;;9.20;99.90;;;;;;4965313;28;20093;-93
2023/03/31 01:39:26;;;;;;;7.45;1.73;;;9.20;99.90;;;;;;4952875;28;20038;-92
2023/03/31 01:42:00;;;;;;;10.38;2.28;;;9.20;99.90;;;;;;4974362;28;20039;-93
2023/03/31 01:45:11;;;;;;;14.20;2.13;;;9.20;99.90;;;;;;4975539;28;20127;-92
2023/03/31 01:47:43;;;;;;;9.20;1.83;;;9.20;99.90;;;;;;4959895;28;20023;-93
2023/03/31 01:50:33;;;;;;;7.88;2.55;;;9.20;99.90;;;;;;4959788;28;20031;-93
2023/03/31 01:53:05;;;;;;;15.75;1.80;;;9.20;99.90;;;;;;4975712;28;20027;-92
2023/03/31 01:55:54;;;;;;;11.35;1.80;;;9.10;99.90;;;;;;4975136;28;20538;-93
2023/03/31 01:58:25;;;;;;;9.15;1.90;;;9.20;99.90;;;;;;4963759;28;20030;-93
2023/03/31 02:01:04;;;;;;;15.02;2.05;;;9.20;99.90;;;;;;4943035;28;20083;-93
2023/03/31 02:03:36;;;;;;;8.82;3.35;;;9.20;99.90;;;;;;4959336;28;20030;-92
2023/03/31 02:06:24;;;;;;;13.20;2.47;;;9.20;99.90;;;;;;4958734;28;20033;-93
2023/03/31 02:09:13;;;;;;;11.77;2.13;;;9.20;99.90;;;;;;4970580;28;20502;-93
2023/03/31 02:11:42;;;;;;;13.02;2.25;;;9.10;99.90;;;;;;4977673;28;20044;-93
2023/03/31 02:14:11;;;;;;;14.88;2.67;;;9.20;99.90;;;;;;4977822;28;20538;-92
2023/03/31 02:16:46;;;;;;;9.48;2.85;;;9.20;99.90;;;;;;4977574;28;20034;-93
2023/03/31 02:19:17;;;;;;;17.13;2.70;;;9.10;99.90;;;;;;4993916;28;20026;-93
2023/03/31 02:21:48;;;;;;;9.30;2.03;;;9.20;99.90;;;;;;4977721;28;20034;-92
2023/03/31 02:24:15;;;;;;;11.18;2.28;;;9.10;99.90;;;;;;4993934;28;20587;-93
2023/03/31 02:27:03;;;;;;;7.57;1.88;;;9.10;99.90;;;;;;4977281;28;20030;-94
2023/03/31 02:29:29;;;;;;;7.38;1.77;;;9.10;99.90;;;;;;4977660;28;20558;-93
2023/03/31 02:32:08;;;;;;;8.20;1.98;;;9.10;99.90;;;;;;4976966;28;20062;-93
2023/03/31 02:34:33;;;;;;;16.25;3.88;;;9.10;99.90;;;;;;4993616;28;20117;-93
2023/03/31 02:36:59;;;;;;;11.95;2.42;;;9.20;99.90;;;;;;4993331;28;20133;-93
2023/03/31 02:39:30;;;;;;;11.23;2.72;;;9.20;99.90;;;;;;4977418;28;20022;-92
2023/03/31 02:41:56;;;;;;;10.23;2.88;;;9.10;99.90;;;;;;4977322;28;20514;-93
2023/03/31 02:44:23;;;;;;;14.35;2.72;;;9.10;99.90;;;;;;4977428;28;20030;-93
2023/03/31 02:46:49;;;;;;;12.38;2.60;;;9.20;99.90;;;;;;4977222;28;20030;-93
2023/03/31 02:49:16;;;;;;;18.60;2.92;;;9.20;99.90;;;;;;4977248;28;20023;-93
2023/03/31 02:52:09;;;;;;;10.20;2.05;;;9.20;99.90;;;;;;4977638;28;20534;-92
2023/03/31 02:55:09;;;;;;;9.38;2.47;;;9.30;99.90;;;;;;4995542;28;20027;-92
2023/03/31 02:58:05;;;;;;;9.05;2.38;;;9.30;99.90;;;;;;4993057;28;20042;-92
2023/03/31 03:01:02;;;;;;;11.02;2.97;;;9.30;99.90;;;;;;4977436;28;20070;-91
2023/03/31 03:03:33;;;;;;;11.68;2.97;;;9.30;99.90;;;;;;4976859;28;20038;-93
2023/03/31 03:06:17;;;;;;;17.52;2.92;;;9.30;99.90;;;;;;4977723;28;20170;-92
2023/03/31 03:08:54;;;;;;;12.75;3.30;;;9.20;99.90;;;;;;4977261;28;20495;-93
2023/03/31 03:11:45;;;;;;;11.15;2.50;;;9.20;99.90;;;;;;4977013;28;20065;-91
2023/03/31 03:14:16;;;;;;;8.45;3.10;;;9.20;99.90;;;;;;4976965;28;20033;-91
2023/03/31 03:16:47;;;;;;;11.27;4.13;;;9.20;99.90;;;;;;4993174;28;20057;-90
2023/03/31 03:19:18;;;;;;;9.77;2.90;;;9.20;99.90;;;;;;4977149;28;20033;-94
2023/03/31 03:21:46;;;;;;;7.63;2.55;;;9.10;99.90;;;;;;4993807;28;20034;-94
2023/03/31 03:24:13;;;;;;;15.95;3.00;;;9.10;99.90;;;;;;4977528;28;20081;-94
2023/03/31 03:26:39;;;;;;;5.90;1.52;;;9.10;99.90;;;;;;4993794;28;20034;-94
2023/03/31 03:29:04;;;;;;;7.05;1.98;;;9.10;99.90;;;;;;4993645;28;20029;-94
2023/03/31 03:31:32;;;;;;;4.05;1.38;;;9.10;99.90;;;;;;4977461;28;20034;-94
2023/03/31 03:33:58;;;;;;;3.28;1.40;;;9.10;99.90;;;;;;4977228;28;20027;-94
2023/03/31 03:36:24;;;;;;;3.47;1.35;;;9.10;99.90;;;;;;4993477;28;20133;-95
2023/03/31 03:38:49;;;;;;;3.55;1.20;;;9.10;99.90;;;;;;4977664;28;20030;-94
2023/03/31 03:41:15;;;;;;;2.20;1.15;;;9.10;99.90;;;;;;4976274;28;20026;-94
2023/03/31 03:43:41;;;;;;;4.57;1.77;;;9.10;99.90;;;;;;4995406;28;20118;-94
2023/03/31 03:46:07;;;;;;;6.18;1.35;;;9.00;99.90;;;;;;4979273;28;20537;-95
2023/03/31 03:48:33;;;;;;;3.92;1.35;;;9.10;99.90;;;;;;4979693;28;20029;-94
2023/03/31 03:51:00;;;;;;;2.65;1.20;;;9.10;99.90;;;;;;4996067;28;20088;-94
2023/03/31 03:53:25;;;;;;;6.07;1.75;;;9.00;99.90;;;;;;4979817;28;20387;-95
2023/03/31 03:55:51;;;;;;;4.18;1.58;;;9.00;99.90;;;;;;4978863;28;20041;-94
2023/03/31 03:58:18;;;;;;;4.97;1.73;;;9.00;99.90;;;;;;4978953;28;20030;-93
2023/03/31 04:00:44;;;;;;;3.45;2.20;;;9.00;99.90;;;;;;4978861;28;20053;-94
2023/03/31 04:03:11;;;;;;;3.50;1.80;;;9.00;99.90;;;;;;4982348;28;20034;-94
2023/03/31 04:05:37;;;;;;;3.67;2.25;;;9.00;99.90;;;;;;4978794;28;20041;-93
2023/03/31 04:08:04;;;;;;;6.82;2.47;;;9.00;99.90;;;;;;4995307;28;20384;-94
2023/03/31 04:10:30;;;;;;;5.15;2.88;;;9.00;99.90;;;;;;4998117;28;20030;-95
2023/03/31 04:12:56;;;;;;;7.22;3.17;;;9.00;99.90;;;;;;4997942;28;20586;-94
2023/03/31 04:15:21;;;;;;;9.73;2.97;;;9.00;99.90;;;;;;4998592;28;20025;-94
2023/03/31 04:17:53;;;;;;;5.28;3.15;;;9.00;99.90;;;;;;4998825;28;20052;-94
2023/03/31 04:20:20;;;;;;;5.22;3.47;;;9.00;99.90;;;;;;5002182;28;20475;-93
2023/03/31 04:22:49;;;;;;;7.45;3.70;;;9.00;99.90;;;;;;5013208;28;20045;-94
2023/03/31 04:25:16;;;;;;;4.65;3.15;;;9.00;99.90;;;;;;5000109;28;20018;-94
2023/03/31 04:27:45;;;;;;;3.78;3.08;;;9.00;99.90;;;;;;4998983;28;20439;-95
2023/03/31 04:30:21;;;;;;;5.40;2.00;;;9.00;99.90;;;;;;4998535;28;20032;-95
2023/03/31 04:32:51;;;;;;;2.25;1.20;;;9.00;99.90;;;;;;4998803;28;20108;-95
2023/03/31 04:35:19;;;;;;;1.70;1.15;;;9.00;99.90;;;;;;4998700;28;20037;-94
2023/03/31 04:37:46;;;;;;;0.63;0.63;;;9.00;99.90;;;;;;4998522;28;20038;-93
2023/03/31 04:40:12;;;;;;;1.08;0.88;;;9.00;99.90;;;;;;4998854;28;20026;-94
2023/03/31 04:42:38;;;;;;;1.13;1.00;;;9.00;99.90;;;;;;4998500;28;20033;-94
2023/03/31 04:45:04;;;;;;;1.27;1.17;;;9.00;99.90;;;;;;4998183;28;20034;-93
2023/03/31 04:47:29;;;;;;;0.70;0.70;;;9.00;99.90;;;;;;4998471;28;20118;-93
2023/03/31 04:49:55;;;;;;;2.45;0.82;;;9.00;99.90;;;;;;5006561;28;20064;-93
2023/03/31 04:52:21;;;;;;;0.82;0.40;;;9.00;99.90;;;;;;5004604;28;20032;-94
2023/03/31 04:54:46;;;;;;;0.73;0.63;;;9.00;99.90;;;;;;4998280;28;20021;-94
2023/03/31 04:57:12;;;;;;;0.43;0.43;;;9.00;99.90;;;;;;4998977;28;20033;-93
2023/03/31 04:59:38;;;;;;;0.98;0.70;;;9.00;99.90;;;;;;4999275;28;20121;-94
2023/03/31 05:02:03;;;;;;;0.45;0.43;;;9.00;99.90;;;;;;4999319;28;20496;-94
2023/03/31 05:04:29;;;;;;;1.08;0.50;;;9.00;99.90;;;;;;4998779;28;20026;-95
2023/03/31 05:06:55;;;;;;;1.50;0.68;;;9.00;99.90;;;;;;4998305;28;20026;-94
2023/03/31 05:09:21;;;;;;;0.82;0.73;;;9.00;99.90;;;;;;4984127;28;20078;-94
2023/03/31 05:11:47;;;;;;;1.08;0.60;;;9.10;99.90;;;;;;4975666;28;20030;-94
2023/03/31 05:14:12;;;;;;;2.15;0.77;;;9.10;99.90;;;;;;4975724;28;20035;-94
2023/03/31 05:16:38;;;;;;;1.60;1.10;;;9.10;99.90;;;;;;4975886;28;20035;-93
2023/03/31 05:19:04;;;;;;;1.65;1.30;;;9.10;99.90;;;;;;4975609;28;20034;-94
2023/03/31 05:21:30;;;;;;;2.47;1.45;;;9.10;99.90;;;;;;4959778;28;20041;-94
2023/03/31 05:23:56;;;;;;;2.45;1.08;;;9.10;99.90;;;;;;4975915;28;20110;-94
2023/03/31 05:26:24;;;;;;;1.42;1.30;;;9.10;99.90;;;;;;4975618;28;20034;-95
2023/03/31 05:28:51;;;;;;;2.58;1.52;;;9.10;99.90;;;;;;4975214;28;20033;-94
2023/03/31 05:31:18;;;;;;;2.17;1.42;;;9.10;99.90;;;;;;4975385;28;20037;-94
2023/03/31 05:33:43;;;;;;;2.90;1.38;;;9.10;99.90;;;;;;4975732;28;20027;-94
2023/03/31 05:36:12;;;;;;;2.30;1.17;;;9.10;99.90;;;;;;4975264;28;20102;-94
2023/03/31 05:38:38;;;;;;;1.60;1.10;;;9.10;99.90;;;;;;4974722;28;20053;-94
2023/03/31 05:41:05;;;;;;;2.45;1.55;;;9.10;99.90;;;;;;4975291;28;20114;-93
2023/03/31 05:43:31;;;;;;;3.15;1.30;;;9.10;99.90;;;;;;4975335;28;20098;-93
2023/03/31 05:45:57;;;;;;;4.03;1.67;;;9.10;99.90;;;;;;4960675;28;20046;-93
2023/03/31 05:48:23;;;;;;;2.92;1.63;;;9.10;99.90;;;;;;4975199;28;20473;-93
2023/03/31 05:50:48;;;;;;;1.42;1.15;;;9.10;99.90;;;;;;4974624;28;20038;-94
2023/03/31 05:53:14;;;;;;;1.38;1.27;;;9.10;99.90;;;;;;4959073;28;20457;-95
2023/03/31 05:55:40;;;;;;;1.98;1.20;;;9.10;99.90;;;;;;4974747;28;20030;-94
2023/03/31 05:58:07;;;;;;;2.67;1.52;;;9.10;99.90;;;;;;4958290;28;20034;-93
2023/03/31 06:00:34;;;;;;;1.92;1.40;;;9.10;99.90;;;;;;4974910;28;20572;-94
2023/03/31 06:03:00;;;;;;;4.18;2.00;;;9.10;99.90;;;;;;4975072;28;20023;-93
2023/03/31 06:05:26;;;;;;;3.33;1.70;;;9.10;99.90;;;;;;4958844;28;20030;-94
2023/03/31 06:07:52;;;;;;;2.20;1.55;;;9.10;99.90;;;;;;4959107;28;20023;-94
2023/03/31 06:10:19;;;;;;;1.83;1.30;;;9.10;99.90;;;;;;4975553;28;20082;-93
2023/03/31 06:12:45;;;;;;;2.03;1.20;;;9.10;99.90;;;;;;4976797;28;20030;-93
2023/03/31 06:15:11;;;;;;;1.58;1.20;;;9.10;99.90;;;;;;4977567;28;20031;-93
2023/03/31 06:17:36;;;;;;;3.33;1.52;;;9.10;99.90;;;;;;4978944;28;20035;-95
2023/03/31 06:20:04;;;;;;;1.52;1.33;;;9.10;99.90;;;;;;4996492;28;20031;-93
2023/03/31 06:22:30;;;;;;;2.65;1.50;;;9.10;99.90;;;;;;4994634;28;20294;-94
2023/03/31 06:24:55;;;;;;;2.38;1.40;;;9.10;99.90;;;;;;4975114;28;20063;-93
2023/03/31 06:27:21;;;;;;;3.95;1.55;;;9.10;99.90;;;;;;4975146;28;20584;-94
2023/03/31 06:29:48;;;;;;;2.90;1.83;;;9.10;99.90;;;;;;4975131;28;20069;-93
2023/03/31 06:32:15;;;;;;;2.65;1.90;;;9.10;99.90;;;;;;4959966;28;20034;-94
2023/03/31 06:34:41;;;;;;;2.15;1.33;;;9.20;99.90;;;;;;4975315;28;20027;-94
2023/03/31 06:37:07;;;;;;;1.98;1.45;;;9.20;99.90;;;;;;4974802;28;20186;-94
2023/03/31 06:39:32;;;;;;;3.83;1.33;;;9.20;99.90;;;;;;4958971;28;20034;-93
2023/03/31 06:41:58;;;;;;;2.05;1.50;;;9.20;99.90;;;;;;4975162;28;20035;-94
2023/03/31 06:44:24;;;;;;;2.15;1.50;;;9.20;99.90;;;;;;4975820;28;20029;-94
2023/03/31 06:46:49;;;;;;;3.92;1.58;;;9.20;99.90;;;;;;4974374;28;20105;-93
2023/03/31 06:49:17;;;;;;;4.75;2.53;;;9.20;99.90;;;;;;4972313;28;20395;-92
2023/03/31 06:51:43;;;;;;;3.05;2.40;;;9.20;99.90;;;;;;4972913;28;20050;-92
2023/03/31 06:54:09;;;;;;;4.43;2.30;;;9.20;99.90;;;;;;4973905;28;20110;-93
2023/03/31 06:56:34;;;;;;;4.75;2.42;;;9.20;99.90;;;;;;4973317;28;20047;-93
2023/03/31 06:59:00;;;;;;;3.40;1.98;;;9.30;99.90;;;;;;4958589;28;20027;-92
2023/03/31 07:01:26;;;;;;;3.05;1.80;;;9.20;99.90;;;;;;4958674;28;20086;-94
2023/03/31 07:03:51;;;;;;;3.50;2.15;;;9.30;99.90;;;;;;4947996;29;20074;-94
2023/03/31 07:06:17;;;;;;;3.20;2.25;;;9.30;99.90;;;;;;4939876;29;20024;-94
2023/03/31 07:08:44;;;;;;;3.70;2.22;;;9.30;99.90;;;;;;4943551;28;20095;-93
2023/03/31 07:11:10;;;;;;;5.07;3.38;;;9.30;99.90;;;;;;4947106;29;20042;-93
2023/03/31 07:13:36;;;;;;;4.97;3.30;;;9.30;99.90;;;;;;4958168;28;20054;-94
2023/03/31 07:16:03;;;;;;;9.15;4.07;;;9.30;99.90;;;;;;4947535;28;20034;-94
2023/03/31 07:18:33;;;;;;;8.65;3.90;;;9.30;99.90;;;;;;4966821;28;20023;-93
2023/03/31 07:20:59;;;;;;;9.25;3.97;;;9.30;99.90;;;;;;4963034;28;20035;-96
2023/03/31 07:23:25;;;;;;;6.68;3.30;;;9.30;99.90;;;;;;4962700;28;20026;-95
2023/03/31 07:25:51;;;;;;;6.22;3.85;;;9.30;99.90;;;;;;4979739;28;20026;-93
2023/03/31 07:28:17;;;;;;;6.65;3.63;;;9.30;99.90;;;;;;4963173;28;20031;-94
2023/03/31 07:30:43;;;;;;;3.83;3.13;;;9.30;99.90;;;;;;4962117;28;20031;-94
2023/03/31 07:33:09;;;;;;;7.55;3.65;;;9.30;99.90;;;;;;4977516;28;20019;-94
2023/03/31 07:35:42;;;;;;;5.90;3.10;;;9.30;99.90;;;;;;4971609;28;20032;-93
2023/03/31 07:38:09;;;;;;;6.25;3.90;;;9.30;99.90;;;;;;4950200;28;20046;-94
2023/03/31 07:40:35;;;;;;;6.28;3.58;;;9.40;99.90;;;;;;4951924;28;20026;-93
2023/03/31 07:43:01;;;;;;;5.90;3.88;;;9.40;99.90;;;;;;4965738;28;20028;-93
2023/03/31 07:45:27;;;;;;;7.40;4.20;;;9.40;99.90;;;;;;4948805;28;20106;-93
2023/03/31 07:47:53;;;;;;;8.18;5.40;;;9.40;99.90;;;;;;4967430;28;20496;-94
2023/03/31 07:50:19;;;;;;;9.40;5.03;;;9.40;99.90;;;;;;4972943;28;20035;-93
2023/03/31 07:52:46;;;;;;;8.57;4.63;;;9.40;99.90;;;;;;4966780;28;20539;-93
2023/03/31 07:55:12;;;;;;;8.27;4.20;;;9.40;99.90;;;;;;4975106;28;20397;-94
2023/03/31 07:57:38;;;;;;;8.35;4.40;;;9.50;99.90;;;;;;4981187;28;20046;-93
2023/03/31 08:00:07;;;;;;;6.57;3.70;;;9.60;99.90;;;;;;4958864;28;20026;-95
2023/03/31 08:02:33;;;;;;;3.95;3.05;;;9.60;99.90;;;;;;4976505;28;20027;-95
2023/03/31 08:04:59;;;;;;;4.72;2.58;;;9.60;99.90;;;;;;4975891;28;20063;-94
2023/03/31 08:07:26;;;;;;;3.70;2.40;;;9.70;99.90;;;;;;4976614;28;20046;-94
2023/03/31 08:09:51;;;;;;;4.68;2.13;;;9.80;99.90;;;;;;4994069;28;20046;-95
2023/03/31 08:12:17;;;;;;;3.65;2.08;;;9.80;99.90;;;;;;4998362;28;20187;-94
2023/03/31 08:14:43;;;;;;;3.50;1.85;;;9.80;99.90;;;;;;4997908;28;20502;-93
2023/03/31 08:17:09;;;;;;;2.47;2.03;;;9.90;99.90;;;;;;4997744;28;20065;-93
2023/03/31 08:19:35;;;;;;;3.28;2.05;;;9.90;99.90;;;;;;4999064;28;20045;-93
2023/03/31 08:22:01;;;;;;;2.65;2.10;;;10.00;99.90;;;;;;4997530;28;20022;-94
2023/03/31 08:24:31;;;;;;;3.15;2.35;;;10.00;99.90;;;;;;4998274;28;20067;-95
2023/03/31 08:26:56;;;;;;;3.22;2.80;;;10.10;99.90;;;;;;4997998;28;20435;-93
2023/03/31 08:29:22;;;;;;;3.30;2.08;;;10.10;99.90;;;;;;4995876;28;20032;-94
2023/03/31 08:31:49;;;;;;;3.35;2.08;;;10.10;99.90;;;;;;4996879;28;20117;-94
2023/03/31 08:34:15;;;;;;;2.80;1.98;;;10.20;99.90;;;;;;4998328;28;20036;-94
2023/03/31 08:36:41;;;;;;;4.32;1.90;;;10.20;99.90;;;;;;5017072;28;20056;-93
2023/03/31 08:39:10;;;;;;;3.88;2.50;;;10.30;99.90;;;;;;4998960;28;20025;-92
2023/03/31 08:41:52;;;;;;;6.43;2.33;;;10.30;99.90;;;;;;4998496;28;20025;-95
2023/03/31 08:44:52;;;;;;;6.75;3.80;;;10.30;99.90;;;;;;4998835;28;20029;-94
2023/03/31 08:47:36;;;;;;;6.88;4.43;;;10.30;99.90;;;;;;4993541;28;20034;-93
2023/03/31 08:50:22;;;;;;;6.45;3.72;;;10.30;99.90;;;;;;5016144;28;20021;-93
2023/03/31 08:53:14;;;;;;;7.03;3.70;;;10.30;99.90;;;;;;4999112;28;20092;-94
2023/03/31 08:56:11;;;;;;;3.83;3.35;;;10.20;99.90;;;;;;4998543;28;20125;-94
2023/03/31 08:59:01;;;;;;;4.88;2.65;;;10.30;99.90;;;;;;5014772;28;20100;-93
2023/03/31 09:01:58;;;;;;;2.83;2.00;;;10.40;99.90;;;;;;4994349;28;20120;-94
2023/03/31 09:05:05;;;;;;;3.17;2.15;;;10.40;99.90;;;;;;5016672;28;20053;-94
2023/03/31 09:08:06;;;;;;;9.00;3.95;;;10.50;99.90;;;;;;5011767;28;20155;-93
2023/03/31 09:11:07;;;;;;;3.63;2.00;;;10.60;99.90;;;;;;4999040;28;20046;-93
2023/03/31 09:13:52;;;;;;;4.68;2.00;;;10.60;99.90;;;;;;4998878;28;20065;-93
2023/03/31 09:16:26;;;;;;;4.32;2.08;;;10.70;99.90;;;;;;4998020;28;20029;-95
2023/03/31 09:19:01;;;;;;;2.53;1.52;;;10.70;99.90;;;;;;5016434;28;20472;-94
2023/03/31 09:21:39;;;;;;;2.60;1.83;;;10.80;99.90;;;;;;4993307;28;20133;-93
2023/03/31 09:24:22;;;;;;;3.78;2.40;;;10.80;99.90;;;;;;4998641;28;20022;-95
2023/03/31 09:26:54;;;;;;;4.50;3.15;;;10.80;99.90;;;;;;4998525;28;20044;-94
2023/03/31 09:29:41;;;;;;;4.75;3.17;;;10.90;99.90;;;;;;4998286;28;20024;-93
2023/03/31 09:32:27;;;;;;;5.97;4.10;;;10.90;99.90;;;;;;5000386;28;20037;-94
2023/03/31 09:35:01;;;;;;;3.67;2.70;;;11.00;99.90;;;;;;5008781;28;20033;-94
2023/03/31 09:37:33;;;;;;;5.13;3.70;;;11.00;99.90;;;;;;4996269;28;20042;-94
2023/03/31 09:40:23;;;;;;;6.20;3.30;;;11.00;99.90;;;;;;4981621;28;20128;-93
2023/03/31 09:42:58;;;;;;;5.32;3.58;;;11.00;99.90;;;;;;5001804;28;20042;-94
2023/03/31 09:45:25;;;;;;;7.28;5.70;;;11.00;99.90;;;;;;4999600;28;20069;-95
2023/03/31 09:47:56;;;;;;;16.25;7.55;;;11.00;99.90;;;;;;4999101;28;20022;-94
2023/03/31 09:50:23;;;;;;;11.90;6.63;;;11.00;99.90;;;;;;4997331;28;20029;-94
2023/03/31 09:53:00;;;;;;;14.50;7.35;;;11.00;99.90;;;;;;4998361;28;20026;-93
2023/03/31 09:56:01;;;;;;;11.77;7.13;;;10.90;99.90;;;;;;4998566;28;20058;-93
2023/03/31 09:58:39;;;;;;;9.73;6.57;;;10.80;99.90;;;;;;4996930;28;20076;-94
2023/03/31 10:01:28;;;;;;;11.88;6.55;;;10.80;99.90;;;;;;4993830;28;20483;-94
2023/03/31 10:04:06;;;;;;;11.30;6.07;;;10.90;99.90;;;;;;5014667;28;20093;-93
2023/03/31 10:06:38;;;;;;;9.18;5.38;;;10.90;99.90;;;;;;4996506;28;20029;-93
2023/03/31 10:09:06;;;;;;;6.03;3.65;;;10.90;99.90;;;;;;4996837;28;20523;-93
2023/03/31 10:11:37;;;;;;;3.55;2.30;;;11.00;99.90;;;;;;4997067;28;20072;-93
2023/03/31 10:14:15;;;;;;;3.38;1.73;;;11.00;99.90;;;;;;5011019;28;20038;-94
2023/03/31 10:17:04;;;;;;;1.92;1.50;;;11.10;99.90;;;;;;4997302;28;20033;-94
2023/03/31 10:19:45;;;;;;;2.80;0.82;;;11.20;99.90;;;;;;4997250;28;20072;-93
2023/03/31 10:22:31;;;;;;;2.38;1.60;;;11.20;99.90;;;;;;4996980;28;20037;-95
2023/03/31 10:25:28;;;;;;;4.07;2.67;;;11.30;99.90;;;;;;4995939;28;20483;-93
2023/03/31 10:28:01;;;;;;;4.65;2.92;;;11.30;99.90;;;;;;4996646;28;20471;-94
2023/03/31 10:30:39;;;;;;;3.78;2.80;;;11.40;99.90;;;;;;4996867;28;20135;-94
2023/03/31 10:33:16;;;;;;;4.38;3.00;;;11.40;99.90;;;;;;4996947;28;20597;-94
2023/03/31 10:36:30;;;;;;;3.42;2.70;;;11.40;99.90;;;;;;5027484;28;20042;-93
2023/03/31 10:39:10;;;;;;;1.65;1.55;;;11.50;99.90;;;;;;4994516;28;20034;-93
2023/03/31 10:41:42;;;;;;;2.87;1.63;;;11.60;99.90;;;;;;4983229;28;20046;-94
2023/03/31 10:44:38;;;;;;;1.63;1.30;;;11.60;99.90;;;;;;4981419;28;20328;-94
2023/03/31 10:47:25;;;;;;;1.25;1.15;;;11.60;99.90;;;;;;4997977;28;20026;-95
2023/03/31 10:49:58;;;;;;;1.48;1.27;;;11.60;99.90;;;;;;5026734;28;20034;-93
2023/03/31 10:52:42;;;;;;;2.08;1.00;;;11.70;99.90;;;;;;4992868;28;20030;-94
2023/03/31 10:55:38;;;;;;;1.10;1.00;;;11.70;99.90;;;;;;5008928;28;20034;-94
2023/03/31 10:58:18;;;;;;;1.70;0.80;;;11.70;99.90;;;;;;5013161;28;20090;-94
2023/03/31 11:01:06;;;;;;;;;;;11.80;99.90;;;;;;5024453;28;20018;-93
2023/03/31 11:04:03;;;;;;;1.23;0.75;;;11.80;99.90;;;;;;5030672;28;19963;-94
2023/03/31 11:07:07;;;;;;;1.10;1.00;;;11.90;99.90;;;;;;5003930;28;20034;-93
2023/03/31 11:10:09;;;;;;;1.33;1.23;;;12.00;99.90;;;;;;4991284;28;20562;-94
2023/03/31 11:13:07;;;;;;;3.08;1.23;;;12.00;99.90;;;;;;4980380;28;20066;-94
2023/03/31 11:15:51;;;;;;;1.40;1.30;;;12.00;99.90;;;;;;4980019;28;20031;-94
2023/03/31 11:18:55;;;;;;;1.85;1.40;;;12.10;99.90;;;;;;4982911;28;20070;-93
2023/03/31 11:21:46;;;;;;;2.47;2.03;;;12.10;99.90;;;;;;4980377;28;20050;-93
2023/03/31 11:24:44;;;;;;;3.60;2.00;;;12.00;99.90;;;;;;4963124;28;20035;-95
2023/03/31 11:27:30;;;;;;;3.10;2.50;;;12.00;99.90;;;;;;4980405;28;20089;-94
2023/03/31 11:30:06;;;;;;;4.63;3.65;;;12.00;99.90;;;;;;4964878;28;20043;-94
2023/03/31 11:32:57;;;;;;;6.43;4.15;;;11.90;99.90;;;;;;4965009;28;20023;-93
2023/03/31 11:36:11;;;;;;;5.10;3.75;;;11.90;99.90;;;;;;4965853;28;20059;-94
2023/03/31 11:38:56;;;;;;;7.50;4.07;;;11.90;99.90;;;;;;4980496;28;20428;-93
2023/03/31 11:41:51;;;;;;;6.18;4.15;;;11.90;99.90;;;;;;4991615;28;20035;-95
2023/03/31 11:44:26;;;;;;;5.07;3.30;;;11.90;99.90;;;;;;4995795;28;20035;-92
2023/03/31 11:47:10;;;;;;;2.85;2.25;;;11.80;99.90;;;;;;4983575;28;20086;-92
2023/03/31 11:49:44;;;;;;;3.05;2.03;;;11.80;99.90;;;;;;4998580;28;20094;-93
2023/03/31 11:52:20;;;;;;;2.78;1.65;;;11.70;99.90;;;;;;4999847;28;20031;-93
2023/03/31 11:55:14;;;;;;;1.20;1.05;;;11.70;99.90;;;;;;4988702;28;20271;-92
2023/03/31 11:58:02;;;;;;;0.38;0.38;;;11.70;99.90;;;;;;4984525;28;20532;-94
2023/03/31 12:00:55;;;;;;;0.52;0.30;;;11.70;99.90;;;;;;4981182;28;20052;-93
2023/03/31 12:03:35;;;;;;;0.20;0.20;;;11.70;99.90;;;;;;4979948;28;20095;-93
2023/03/31 12:06:08;;;;;;;0.35;0.35;;;11.70;99.90;;;;;;4978826;28;20034;-92
2023/03/31 12:08:49;;;;;;;0.45;0.30;;;11.80;99.90;;;;;;4964231;28;20035;-93
2023/03/31 12:12:00;;;;;;;0.60;0.60;;;11.80;99.90;;;;;;5001717;28;20049;-93
2023/03/31 12:14:37;;;;;;;0.75;0.40;;;11.80;99.90;;;;;;4904316;29;20043;-93
2023/03/31 12:17:22;;;;;;;0.38;0.30;;;11.70;99.90;;;;;;4904074;29;20036;-92
2023/03/31 12:20:01;;;;;;;0.57;0.47;;;11.70;99.90;;;;;;4904194;29;20028;-94
2023/03/31 12:22:40;;;;;;;0.60;0.60;;;11.70;99.90;;;;;;4903543;29;20025;-93
2023/03/31 12:25:18;;;;;;;1.00;0.80;;;11.60;99.90;;;;;;4917711;29;20513;-94
2023/03/31 12:27:48;;;;;;;1.30;1.20;;;11.60;99.90;;;;;;4904047;29;20038;-93
2023/03/31 12:30:40;;;;;;;3.70;2.00;;;11.50;99.90;;;;;;4919401;29;20034;-94
2023/03/31 12:33:23;;;;;;;4.70;2.70;;;11.50;99.90;;;;;;4903669;29;20149;-95
2023/03/31 12:36:25;;;;;;;3.58;2.72;;;11.40;99.90;;;;;;4904405;29;20486;-95
2023/03/31 12:39:24;;;;;;;6.53;3.08;;;11.30;99.90;;;;;;4903955;29;20055;-93
2023/03/31 12:42:20;;;;;;;8.05;3.00;;;11.30;99.90;;;;;;4920568;29;20055;-93
2023/03/31 12:44:58;;;;;;;5.85;2.85;;;11.20;99.90;;;;;;4903850;29;20051;-94
2023/03/31 12:47:56;;;;;;;4.20;2.53;;;11.20;99.90;;;;;;4906014;29;20044;-93
2023/03/31 12:50:43;;;;;;;2.90;2.20;;;11.10;99.90;;;;;;4952086;28;20026;-93
2023/03/31 12:53:52;;;;;;;6.50;2.38;;;11.10;99.90;;;;;;5017105;28;20025;-94
2023/03/31 12:56:48;;;;;;;8.40;2.22;;;11.10;99.90;;;;;;5017198;28;20034;-95
2023/03/31 12:59:24;;;;;;;8.15;3.28;;;11.10;99.90;;;;;;4999923;28;20038;-95
2023/03/31 13:02:29;;;;;;;7.47;4.25;;;11.00;99.90;;;;;;5017224;28;20471;-94
2023/03/31 13:05:00;;;;;;;6.57;4.05;;;11.00;99.90;;;;;;5000839;28;20038;-94
2023/03/31 13:07:46;;;;;;;5.32;3.55;;;10.90;99.90;;;;;;5016463;28;20057;-94
2023/03/31 13:10:49;;;;;;;4.82;2.88;;;11.00;99.90;;;;;;5012472;28;20053;-95
2023/03/31 13:13:21;;;;;;;5.10;2.10;;;11.00;99.90;;;;;;5016461;28;20030;-93
2023/03/31 13:16:14;;;;;;;6.80;2.20;;;10.90;99.90;;;;;;4993988;28;20060;-95
2023/03/31 13:19:09;;;;;;;3.95;2.00;;;10.90;99.90;;;;;;5016711;28;20383;-94
2023/03/31 13:22:02;;;;;;;3.65;1.90;;;11.00;99.90;;;;;;4999007;28;20029;-95
2023/03/31 13:25:24;;;;;;;2.65;1.83;;;11.00;99.90;;;;;;5016630;28;20041;-95
2023/03/31 13:31:22;;;;;;;4.93;1.90;;;11.00;99.90;;;;;;5016960;28;20029;-95
2023/03/31 13:34:06;;;;;;;6.55;2.40;;;11.00;99.90;;;;;;4967822;28;20046;-93
2023/03/31 13:37:09;;;;;;;7.10;2.95;;;11.00;99.90;;;;;;5015573;28;20034;-93
2023/03/31 13:40:16;;;;;;;5.38;2.63;;;10.90;99.90;;;;;;5015509;28;20038;-93